This is the latest recevied weather packets stored in our database for station/object AE5PL. If no packets are shown the sender has not sent any weather packets the latest 1 day(s).
| Time | Temp. | Humidity | Pressure | Rain* | Wind** | Luminosity | Snow |
|---|---|---|---|---|---|---|---|
| 1778021249 | 28.89° C | 51% | 1003.3 hPa | - | 2.24 m/s, 315° | - | - |
| 1778020949 | 29.44° C | 51% | 1003.1 hPa | - | 2.68 m/s, 315° | - | - |
| 1778020649 | 30° C | 50% | 1002.9 hPa | - | 3.13 m/s, 315° | - | - |
| 1778020349 | 31.11° C | 48% | 1002.8 hPa | - | 2.24 m/s, 315° | - | - |
| 1778020049 | 32.22° C | 53% | 1002.4 hPa | - | 0 m/s | - | - |
| 1778019749 | 31.67° C | 55% | 1002.4 hPa | - | 0 m/s | - | - |
| 1778019449 | 31.67° C | 55% | 1002.5 hPa | - | 0.89 m/s, 270° | - | - |
| 1778019149 | 31.11° C | 55% | 1002.4 hPa | - | 0.89 m/s, 270° | - | - |
| 1778018849 | 31.11° C | 54% | 1002.4 hPa | - | 0.45 m/s, 247° | - | - |
| 1778018549 | 31.11° C | 55% | 1002.7 hPa | - | 0.45 m/s, 225° | - | - |
| 1778018249 | 31.11° C | 55% | 1002.7 hPa | - | 0.89 m/s, 270° | - | - |
| 1778017949 | 31.67° C | 53% | 1002.8 hPa | - | 1.34 m/s, 270° | - | - |
| 1778017649 | 31.67° C | 53% | 1002.8 hPa | - | 0.89 m/s, 247° | - | - |
| 1778017349 | 32.22° C | 54% | 1002.7 hPa | - | 0.45 m/s, 270° | - | - |
| 1778017049 | 32.22° C | 54% | 1002.8 hPa | - | 0.89 m/s, 270° | - | - |
| 1778016749 | 31.67° C | 58% | 1002.9 hPa | - | 0.45 m/s, 247° | - | - |
| 1778016449 | 31.11° C | 58% | 1002.8 hPa | - | 0.45 m/s, 270° | - | - |
| 1778016149 | 31.11° C | 58% | 1002.9 hPa | - | 0.45 m/s, 225° | - | - |
| 1778015849 | 31.11° C | 56% | 1002.9 hPa | - | 0.89 m/s, 135° | - | - |
| 1778015549 | 31.67° C | 53% | 1003.1 hPa | - | 1.79 m/s, 270° | - | - |
| 1778015249 | 31.67° C | 54% | 1003.1 hPa | - | 0.45 m/s, 247° | - | - |
| 1778014949 | 31.67° C | 57% | 1003.1 hPa | - | 0.89 m/s, 270° | - | - |
| 1778014649 | 31.67° C | 55% | 1003.2 hPa | - | 1.79 m/s, 202° | - | - |
| 1778014349 | 31.67° C | 54% | 1003.2 hPa | - | 1.79 m/s, 270° | - | - |
| 1778014049 | 31.67° C | 58% | 1003.2 hPa | - | 0.45 m/s, 270° | - | - |
* Rain since midnight (hover to see other rain measurements)
** Current wind speed in m/s (hover to see current wind gust speed)